23/3 a 3/4 - Continúa tiempo cálido y más inestable, FF al final

Avatar de Usuario
Diecha
Mensajes: 11000
Registrado: Jue Ago 25, 2011 9:31 pm
Ubicación: Lomas de Zamora

Re: 23/3 a 3/4 - Continúa tiempo cálido y más inestable, FF al final

Mensaje por Diecha » Mié Abr 01, 2020 8:34 pm

- San Fernando 20 hs: SADF 012300Z 20006KT 9999 SCT025 OVC100 22/20 Q1012
- Aeroparque 20 hs: SABE 012300Z 20005KT 9999 SCT023 OVC046 24/19 Q1012
- Ezeiza 20 hs: SAEZ 012300Z 25002KT 7000 -RA SCT036 OVC060 22/20 Q1012

Imagen
Imagen

Avatar de Usuario
Ezequiel1995
Mensajes: 1069
Registrado: Mar Nov 12, 2019 4:50 pm
Ubicación: Merlo, Buenos Aires
Contactar:

Re: 23/3 a 3/4 - Continúa tiempo cálido y más inestable, FF al final

Mensaje por Ezequiel1995 » Mié Abr 01, 2020 9:43 pm

Se largó moderado acá

Avatar de Usuario
Ernest
Mensajes: 11296
Registrado: Vie Jul 17, 2009 10:54 pm
Ubicación: Balvanera, CABA

Re: 23/3 a 3/4 - Continúa tiempo cálido y más inestable, FF al final

Mensaje por Ernest » Mié Abr 01, 2020 9:50 pm

Acá en Once muchísimo viento. Unas gotas nomás hace un rato.
Did you want to talk about the weather, or were you just making chitchat?

Twitter: @ErnestoMeteo

Avatar de Usuario
Diecha
Mensajes: 11000
Registrado: Jue Ago 25, 2011 9:31 pm
Ubicación: Lomas de Zamora

Re: 23/3 a 3/4 - Continúa tiempo cálido y más inestable, FF al final

Mensaje por Diecha » Mié Abr 01, 2020 10:08 pm

Imagen

Imagen
Spoiler
Mostrar
Imagen
Imagen
Imagen
Imagen
Imagen
Imagen
Imagen
Imagen
Imagen
Imagen
Imagen
Imagen
Imagen
Imagen
Imagen
Última edición por Diecha el Jue Abr 02, 2020 12:44 pm, editado 2 veces en total.

Avatar de Usuario
MOTORHOMEMASTER
Mensajes: 4827
Registrado: Lun May 16, 2011 2:20 pm
Ubicación: Castelar o Hurlingham, Prov. Bs. As.

Re: 23/3 a 3/4 - Continúa tiempo cálido y más inestable, FF al final

Mensaje por MOTORHOMEMASTER » Mié Abr 01, 2020 10:08 pm

Mmm... se va toda la actividad hacia Uruguay...

Avatar de Usuario
Venepuntano
Mensajes: 632
Registrado: Mar Jul 19, 2011 6:33 pm
Ubicación: San Luis

Re: 23/3 a 3/4 - Continúa tiempo cálido y más inestable, FF al final

Mensaje por Venepuntano » Mié Abr 01, 2020 10:15 pm

Por fin un día realmente otoñal en San Luis, la máxima se dió en la pasada madrugada y hoy durante la tarde la máxima se mantuvo entre 15 y 17 grados con vientos moderados y nubosidad variable, lloviznas intermitentes durante todo el día. Hasta ví hojas volar con el viento

Avatar de Usuario
Ezequiel1995
Mensajes: 1069
Registrado: Mar Nov 12, 2019 4:50 pm
Ubicación: Merlo, Buenos Aires
Contactar:

Re: 23/3 a 3/4 - Continúa tiempo cálido y más inestable, FF al final

Mensaje por Ezequiel1995 » Mié Abr 01, 2020 10:25 pm

MUCHO viento acá también

Danywilde
Mensajes: 2461
Registrado: Mar Ene 24, 2012 1:41 pm
Ubicación: Wilde, Buenos Aires

Re: 23/3 a 3/4 - Continúa tiempo cálido y más inestable, FF al final

Mensaje por Danywilde » Mié Abr 01, 2020 10:55 pm

Viento regular SSO, CON RÁFAGAS Y GARÚA.

Avatar de Usuario
Juan José Frías
Mensajes: 357
Registrado: Sab Abr 19, 2014 8:15 pm
Ubicación: 26°31′00″S 61°10′00″O (Pampa del Infierno)-Chaco, Argentina.

Re: 23/3 a 3/4 - Continúa tiempo cálido y más inestable, FF al final

Mensaje por Juan José Frías » Mié Abr 01, 2020 11:05 pm

Hola, por acá 26 grados y cae rocío. Se comienzan a ver relámpagos al oeste y hay un leve viento sur.

marleygaletfede
Mensajes: 2348
Registrado: Lun Feb 20, 2012 10:13 pm
Ubicación: Santa Teresita, Partido de La Costa, Buenos Aires

Re: 23/3 a 3/4 - Continúa tiempo cálido y más inestable, FF al final

Mensaje por marleygaletfede » Jue Abr 02, 2020 1:26 am

Bueno, no llovió mas ni hubo tormentas como pronosticaba el SMN :|
Lo que si empezó el viento del sur con intensidad.... estaba viendo el Windy y para mañana cerca del mediodía muestra vientos tremendos del sur. Eso está confirmado? :o
Frente a cualquier sistemita de baja presión tiran alerta pero hace rato no veo esa simulación para la costa bonaerense... Y tampóco se habló tanto en el foro del tema. Serán tan intensos los vientos? Perdón pero como se tira alerta por cualquier pavada y en esta ocasion parece que viene fiero me parecía preguntar... :?

Responder